createdAt,value
2018-10-09T00:00:06.437Z,8.30
2018-10-09T00:02:35.148Z,8.30
2018-10-09T00:05:03.848Z,8.30
2018-10-09T00:07:32.930Z,8.30
2018-10-09T00:10:01.982Z,8.20
2018-10-09T00:12:30.986Z,8.10
2018-10-09T00:14:59.697Z,8.10
2018-10-09T00:17:28.414Z,8.10
2018-10-09T00:19:57.511Z,8.10
2018-10-09T00:22:26.517Z,8.00
2018-10-09T00:24:55.560Z,8.00
2018-10-09T00:27:24.229Z,8.00
2018-10-09T00:29:53.258Z,7.90
2018-10-09T00:32:22.273Z,8.00
2018-10-09T00:34:51.421Z,8.00
2018-10-09T00:37:19.890Z,8.00
2018-10-09T00:39:48.974Z,8.00
2018-10-09T00:42:17.666Z,8.10
2018-10-09T00:44:46.401Z,8.10
2018-10-09T00:47:15.495Z,8.10
2018-10-09T00:49:44.209Z,8.00
2018-10-09T00:52:12.899Z,7.90
2018-10-09T00:54:41.540Z,7.90
2018-10-09T00:57:09.942Z,7.90
2018-10-09T00:59:38.917Z,7.90
2018-10-09T01:02:07.352Z,7.90
2018-10-09T01:04:36.386Z,7.80
2018-10-09T01:07:05.060Z,7.90
2018-10-09T01:09:34.487Z,7.90
2018-10-09T01:12:03.248Z,8.00
2018-10-09T01:14:32.061Z,7.90
2018-10-09T01:17:01.111Z,7.90
2018-10-09T01:19:29.913Z,7.90
2018-10-09T01:21:58.376Z,7.90
2018-10-09T01:24:27.402Z,7.80
2018-10-09T01:26:55.735Z,7.70
2018-10-09T01:29:24.448Z,7.70
2018-10-09T01:31:53.679Z,7.70
2018-10-09T01:34:22.550Z,7.60
2018-10-09T01:36:51.586Z,7.60
2018-10-09T01:39:20.320Z,7.70
2018-10-09T01:41:48.988Z,7.70
2018-10-09T01:44:17.989Z,7.60
2018-10-09T01:46:46.973Z,7.50
2018-10-09T01:49:15.331Z,7.50
2018-10-09T01:51:44.343Z,7.50
2018-10-09T01:54:13.679Z,7.40
2018-10-09T01:56:42.362Z,7.40
2018-10-09T01:59:11.141Z,7.40
2018-10-09T02:01:40.172Z,7.30
2018-10-09T02:04:08.852Z,7.40
2018-10-09T02:06:38.281Z,7.40
2018-10-09T02:09:08.034Z,7.40
2018-10-09T02:11:36.978Z,7.40
2018-10-09T02:14:05.816Z,7.40
2018-10-09T02:16:34.497Z,7.40
2018-10-09T02:19:03.194Z,7.30
2018-10-09T02:21:31.962Z,7.20
2018-10-09T02:24:00.691Z,7.30
2018-10-09T02:26:29.772Z,7.30
2018-10-09T02:28:58.851Z,7.30
2018-10-09T02:31:27.946Z,7.30
2018-10-09T02:33:57.010Z,7.30
2018-10-09T02:36:25.693Z,7.30
2018-10-09T02:38:54.690Z,7.40
2018-10-09T02:41:24.157Z,7.40
2018-10-09T02:43:53.166Z,7.40
2018-10-09T02:46:21.862Z,7.30
2018-10-09T02:48:50.639Z,7.30
2018-10-09T02:51:19.729Z,7.20
2018-10-09T02:53:48.799Z,7.20
2018-10-09T02:56:17.579Z,7.20
2018-10-09T02:58:46.636Z,7.20
2018-10-09T03:01:15.740Z,7.10
2018-10-09T03:03:44.485Z,7.00
2018-10-09T03:06:12.850Z,7.00
2018-10-09T03:08:41.990Z,7.00
2018-10-09T03:11:11.077Z,7.00
2018-10-09T03:13:39.921Z,7.10
2018-10-09T03:16:08.693Z,7.10
2018-10-09T03:18:37.751Z,7.10
2018-10-09T03:21:06.530Z,7.00
2018-10-09T03:23:35.733Z,7.00
2018-10-09T03:26:04.460Z,7.00
2018-10-09T03:28:33.186Z,7.10
2018-10-09T03:31:01.885Z,7.10
2018-10-09T03:33:30.642Z,7.00
2018-10-09T03:35:59.357Z,6.90
2018-10-09T03:38:28.401Z,7.00
2018-10-09T03:40:57.454Z,7.00
2018-10-09T03:43:26.445Z,7.00
2018-10-09T03:45:55.499Z,7.00
2018-10-09T03:48:24.830Z,7.00
2018-10-09T03:50:53.881Z,6.90
2018-10-09T03:53:23.002Z,7.00
2018-10-09T03:55:51.752Z,7.00
2018-10-09T03:58:20.785Z,6.90
2018-10-09T04:00:49.795Z,6.80
2018-10-09T04:03:18.533Z,6.80
2018-10-09T04:05:47.237Z,6.80
2018-10-09T04:08:16.254Z,6.90
2018-10-09T04:10:45.256Z,6.90
2018-10-09T04:13:14.732Z,6.90
2018-10-09T04:15:43.812Z,6.90
2018-10-09T04:18:12.889Z,7.00
2018-10-09T04:20:41.648Z,7.00
2018-10-09T04:23:10.432Z,7.10
2018-10-09T04:25:39.177Z,6.90
2018-10-09T04:28:07.993Z,6.90
2018-10-09T04:30:37.053Z,7.00
2018-10-09T04:33:05.452Z,7.00
2018-10-09T04:35:33.935Z,6.90
2018-10-09T04:38:02.845Z,6.90
2018-10-09T04:40:31.546Z,7.00
2018-10-09T04:43:00.737Z,7.00
2018-10-09T04:45:30.136Z,7.10
2018-10-09T04:48:00.562Z,7.10
2018-10-09T04:50:30.049Z,7.10
2018-10-09T04:52:58.793Z,7.20
2018-10-09T04:55:27.729Z,7.20
2018-10-09T04:57:57.665Z,7.20
2018-10-09T05:00:26.706Z,7.10
2018-10-09T05:02:55.767Z,7.20
2018-10-09T05:05:24.886Z,7.10
2018-10-09T05:07:53.562Z,7.00
2018-10-09T05:10:22.069Z,6.90
2018-10-09T05:12:50.790Z,6.80
2018-10-09T05:15:19.542Z,6.70
2018-10-09T05:17:48.692Z,6.70
2018-10-09T05:20:17.811Z,6.70
2018-10-09T05:22:46.532Z,6.80
2018-10-09T05:25:15.667Z,6.80
2018-10-09T05:27:44.763Z,6.90
2018-10-09T05:30:13.141Z,6.90
2018-10-09T05:32:41.901Z,7.00
2018-10-09T05:35:10.505Z,7.00
2018-10-09T05:37:39.305Z,7.00
2018-10-09T05:40:08.553Z,7.00
2018-10-09T05:42:37.273Z,7.10
2018-10-09T05:45:06.001Z,7.10
2018-10-09T05:47:35.053Z,7.10
2018-10-09T05:50:04.102Z,7.20
2018-10-09T05:52:33.182Z,7.20
2018-10-09T05:55:02.089Z,7.20
2018-10-09T05:57:31.146Z,7.20
2018-10-09T05:59:59.881Z,7.20
2018-10-09T06:02:28.525Z,7.10
2018-10-09T06:04:57.651Z,7.10
2018-10-09T06:07:26.432Z,7.00
2018-10-09T06:09:55.513Z,7.00
2018-10-09T06:12:24.223Z,7.00
2018-10-09T06:14:52.956Z,7.00
2018-10-09T06:17:22.148Z,7.00
2018-10-09T06:19:51.258Z,7.10
2018-10-09T06:22:20.369Z,7.20
2018-10-09T06:24:49.479Z,7.30
2018-10-09T06:27:18.533Z,7.30
2018-10-09T06:29:47.245Z,7.40
2018-10-09T06:32:16.386Z,7.50
2018-10-09T06:34:45.454Z,7.50
2018-10-09T06:37:14.579Z,7.50
2018-10-09T06:39:43.813Z,7.60
2018-10-09T06:42:12.722Z,7.70
2018-10-09T06:44:41.806Z,7.80
2018-10-09T06:47:10.353Z,7.90
2018-10-09T06:49:39.502Z,8.10
2018-10-09T06:52:07.872Z,8.20
2018-10-09T06:54:37.212Z,8.30
2018-10-09T06:57:06.121Z,8.40
2018-10-09T06:59:35.229Z,8.50
2018-10-09T07:02:03.634Z,8.70
2018-10-09T07:04:32.389Z,8.90
2018-10-09T07:07:01.213Z,9.00
2018-10-09T07:09:30.270Z,9.10
2018-10-09T07:11:59.048Z,9.30
2018-10-09T07:14:28.407Z,9.30
2018-10-09T07:16:57.193Z,9.40
2018-10-09T07:19:26.480Z,9.50
2018-10-09T07:21:55.255Z,9.50
2018-10-09T07:24:24.398Z,9.60
2018-10-09T07:26:53.499Z,9.50
2018-10-09T07:29:21.922Z,9.60
2018-10-09T07:31:50.632Z,9.80
2018-10-09T07:34:19.714Z,10.10
2018-10-09T07:36:48.453Z,10.50
2018-10-09T07:39:17.259Z,10.70
2018-10-09T07:41:46.411Z,10.90
2018-10-09T07:44:15.196Z,11.10
2018-10-09T07:46:43.884Z,11.10
2018-10-09T07:49:12.290Z,11.20
2018-10-09T07:51:41.089Z,11.50
2018-10-09T07:54:09.503Z,11.60
2018-10-09T07:56:38.593Z,11.90
2018-10-09T07:59:07.083Z,12.20
2018-10-09T08:01:36.189Z,12.50
2018-10-09T08:04:05.236Z,12.50
2018-10-09T08:06:33.963Z,12.30
2018-10-09T08:09:03.484Z,12.20
2018-10-09T08:11:32.399Z,11.90
2018-10-09T08:14:01.579Z,12.00
2018-10-09T08:16:30.759Z,12.00
2018-10-09T08:18:59.922Z,12.00
2018-10-09T08:21:29.080Z,12.00
2018-10-09T08:23:59.904Z,12.10
2018-10-09T08:26:29.439Z,12.30
2018-10-09T08:28:58.556Z,12.50
2018-10-09T08:31:27.622Z,12.40
2018-10-09T08:33:56.684Z,12.40
2018-10-09T08:36:26.114Z,12.70
2018-10-09T08:38:55.329Z,13.00
2018-10-09T08:41:24.082Z,13.30
2018-10-09T08:43:53.134Z,13.70
2018-10-09T08:46:22.490Z,14.30
2018-10-09T08:48:51.421Z,14.70
2018-10-09T08:51:20.255Z,14.90
2018-10-09T08:53:48.746Z,15.00
2018-10-09T08:56:17.539Z,15.30
2018-10-09T08:58:46.378Z,15.70
2018-10-09T09:01:15.190Z,16.00
2018-10-09T09:03:44.002Z,16.20
2018-10-09T09:06:12.813Z,15.40
2018-10-09T09:08:41.254Z,15.30
2018-10-09T09:11:10.024Z,15.20
2018-10-09T09:13:38.881Z,15.20
2018-10-09T09:16:08.380Z,15.20
2018-10-09T09:18:36.825Z,15.20
2018-10-09T09:21:05.079Z,15.10
2018-10-09T09:23:33.621Z,15.10
2018-10-09T09:26:02.180Z,15.00
2018-10-09T09:28:30.790Z,14.90
2018-10-09T09:30:59.534Z,14.70
2018-10-09T09:33:28.302Z,14.80
2018-10-09T09:35:57.129Z,15.10
2018-10-09T09:38:25.598Z,15.20
2018-10-09T09:40:54.227Z,15.40
2018-10-09T09:43:23.876Z,15.70
2018-10-09T09:45:52.231Z,15.90
2018-10-09T09:48:20.831Z,16.10
2018-10-09T09:50:49.863Z,16.30
2018-10-09T09:53:18.686Z,16.60
2018-10-09T09:55:47.556Z,17.00
2018-10-09T09:58:16.462Z,17.10
2018-10-09T10:00:50.503Z,17.20
2018-10-09T10:03:18.992Z,17.30
2018-10-09T10:05:47.831Z,17.50
2018-10-09T10:08:16.745Z,17.40
2018-10-09T10:10:45.571Z,17.20
2018-10-09T10:13:14.445Z,17.10
2018-10-09T10:15:42.959Z,17.20
2018-10-09T10:18:11.831Z,17.30
2018-10-09T10:20:40.257Z,17.60
2018-10-09T10:23:08.755Z,17.80
2018-10-09T10:25:37.621Z,17.90
2018-10-09T10:28:05.934Z,17.80
2018-10-09T10:30:34.836Z,17.90
2018-10-09T10:33:03.648Z,18.00
2018-10-09T10:35:32.415Z,18.00
2018-10-09T10:38:01.395Z,18.00
2018-10-09T10:40:29.877Z,18.00
2018-10-09T10:42:58.763Z,17.90
2018-10-09T10:45:27.590Z,17.80
2018-10-09T10:47:56.071Z,18.20
2018-10-09T10:50:24.239Z,18.50
2018-10-09T10:52:52.898Z,18.80
2018-10-09T10:55:21.831Z,18.90
2018-10-09T10:57:50.288Z,19.10
2018-10-09T11:00:19.056Z,19.60
2018-10-09T11:02:47.883Z,20.00
2018-10-09T11:05:16.844Z,19.80
2018-10-09T11:07:45.287Z,19.90
2018-10-09T11:10:13.896Z,20.70
2018-10-09T11:12:42.596Z,21.80
2018-10-09T11:15:11.382Z,23.20
2018-10-09T11:17:40.322Z,24.70
2018-10-09T11:20:09.041Z,25.10
2018-10-09T11:22:38.885Z,24.00
2018-10-09T11:25:06.974Z,22.70
2018-10-09T11:27:35.724Z,22.80
2018-10-09T11:30:04.559Z,23.20
2018-10-09T11:32:33.931Z,23.30
2018-10-09T11:35:02.791Z,22.90
2018-10-09T11:37:31.350Z,22.30
2018-10-09T11:40:00.081Z,21.20
2018-10-09T11:42:28.831Z,20.70
2018-10-09T11:44:58.161Z,20.40
2018-10-09T11:47:27.161Z,20.20
2018-10-09T11:49:55.905Z,20.70
2018-10-09T11:52:24.979Z,20.60
2018-10-09T11:54:53.650Z,20.60
2018-10-09T11:57:22.475Z,20.20
2018-10-09T11:59:51.428Z,20.10
2018-10-09T12:02:20.750Z,19.90
2018-10-09T12:04:50.413Z,19.80
2018-10-09T12:07:18.860Z,19.70
2018-10-09T12:09:46.963Z,19.50
2018-10-09T12:12:16.195Z,19.40
2018-10-09T12:14:44.641Z,19.50
2018-10-09T12:17:13.538Z,20.00
2018-10-09T12:19:42.027Z,21.10
2018-10-09T12:22:10.926Z,22.20
2018-10-09T12:24:40.082Z,22.70
2018-10-09T12:27:08.212Z,22.80
2018-10-09T12:29:36.923Z,23.70
2018-10-09T12:32:05.565Z,24.50
2018-10-09T12:34:34.175Z,25.20
2018-10-09T12:37:02.959Z,24.70
2018-10-09T12:39:31.366Z,24.10
2018-10-09T12:42:00.596Z,23.50
2018-10-09T12:44:29.120Z,23.00
2018-10-09T12:46:58.007Z,22.90
2018-10-09T12:49:26.834Z,22.40
2018-10-09T12:51:54.900Z,22.10
2018-10-09T12:54:23.719Z,21.60
2018-10-09T12:56:52.172Z,21.60
2018-10-09T12:59:21.083Z,21.60
2018-10-09T13:01:49.851Z,21.80
2018-10-09T13:04:18.818Z,22.30
2018-10-09T13:06:47.557Z,22.60
2018-10-09T13:09:16.174Z,22.70
2018-10-09T13:11:45.125Z,22.70
2018-10-09T13:14:13.935Z,22.60
2018-10-09T13:16:42.358Z,22.40
2018-10-09T13:19:11.094Z,22.60
2018-10-09T13:21:40.806Z,22.30
2018-10-09T13:24:10.047Z,21.90
2018-10-09T13:26:39.316Z,21.70
2018-10-09T13:29:07.731Z,21.50
2018-10-09T13:31:36.890Z,21.50
2018-10-09T13:34:06.131Z,21.20
2018-10-09T13:36:35.079Z,21.10
2018-10-09T13:39:05.211Z,21.20
2018-10-09T13:41:33.793Z,21.50
2018-10-09T13:44:02.365Z,21.80
2018-10-09T13:46:32.011Z,22.10
2018-10-09T13:49:01.280Z,22.50
2018-10-09T13:51:31.146Z,22.80
2018-10-09T13:54:00.044Z,23.50
2018-10-09T13:56:28.955Z,23.30
2018-10-09T13:58:57.759Z,23.20
2018-10-09T14:01:26.337Z,23.10
2018-10-09T14:03:55.153Z,22.90
2018-10-09T14:06:24.022Z,23.00
2018-10-09T14:08:52.775Z,22.80
2018-10-09T14:11:21.182Z,22.40
2018-10-09T14:13:49.991Z,22.00
2018-10-09T14:16:18.453Z,21.80
2018-10-09T14:18:47.120Z,21.40
2018-10-09T14:21:15.914Z,21.30
2018-10-09T14:23:44.735Z,21.30
2018-10-09T14:26:13.198Z,21.30
2018-10-09T14:28:41.959Z,21.60
2018-10-09T14:31:10.684Z,21.60
2018-10-09T14:33:39.215Z,21.30
2018-10-09T14:36:07.673Z,21.10
2018-10-09T14:38:36.465Z,20.80
2018-10-09T14:41:04.809Z,20.70
2018-10-09T14:43:33.663Z,20.60
2018-10-09T14:46:02.519Z,20.70
2018-10-09T14:48:31.222Z,20.70
2018-10-09T14:50:59.618Z,20.90
2018-10-09T14:53:28.442Z,21.10
2018-10-09T14:55:56.918Z,21.50
2018-10-09T14:58:25.683Z,21.60
2018-10-09T15:00:54.102Z,21.80
2018-10-09T15:03:23.392Z,22.30
2018-10-09T15:05:52.307Z,23.10
2018-10-09T15:08:20.943Z,24.10
2018-10-09T15:10:49.660Z,24.60
2018-10-09T15:13:18.481Z,25.00
2018-10-09T15:15:47.299Z,25.70
2018-10-09T15:18:16.259Z,25.60
2018-10-09T15:20:44.668Z,25.60
2018-10-09T15:23:13.335Z,25.90
2018-10-09T15:25:42.328Z,26.00
2018-10-09T15:28:11.187Z,25.70
2018-10-09T15:30:40.332Z,25.60
2018-10-09T15:33:09.411Z,25.10
2018-10-09T15:35:38.526Z,24.40
2018-10-09T15:38:06.727Z,23.80
2018-10-09T15:40:35.999Z,23.30
2018-10-09T15:43:04.420Z,23.10
2018-10-09T15:45:35.449Z,22.80
2018-10-09T15:48:03.764Z,23.10
2018-10-09T15:50:32.530Z,23.20
2018-10-09T15:53:00.957Z,23.20
2018-10-09T15:55:29.730Z,23.00
2018-10-09T15:57:58.491Z,22.80
2018-10-09T16:00:27.395Z,22.50
2018-10-09T16:02:56.511Z,22.10
2018-10-09T16:05:25.302Z,21.80
2018-10-09T16:07:53.731Z,21.20
2018-10-09T16:10:22.235Z,20.60
2018-10-09T16:12:51.331Z,20.20
2018-10-09T16:15:19.423Z,19.90
2018-10-09T16:17:48.347Z,19.60
2018-10-09T16:20:17.090Z,19.20
2018-10-09T16:22:45.947Z,18.80
2018-10-09T16:25:14.748Z,18.50
2018-10-09T16:27:43.230Z,18.40
2018-10-09T16:30:11.696Z,18.20
2018-10-09T16:32:40.473Z,17.90
2018-10-09T16:35:09.310Z,17.50
2018-10-09T16:37:38.067Z,17.40
2018-10-09T16:40:06.183Z,17.20
2018-10-09T16:42:35.005Z,17.10
2018-10-09T16:45:03.194Z,17.00
2018-10-09T16:47:32.103Z,16.90
2018-10-09T16:50:00.653Z,16.90
2018-10-09T16:52:29.090Z,16.80
2018-10-09T16:54:57.555Z,16.70
2018-10-09T16:57:25.662Z,16.70
2018-10-09T16:59:54.124Z,16.50
2018-10-09T17:02:23.323Z,16.50
2018-10-09T17:04:51.400Z,16.40
2018-10-09T17:07:20.176Z,16.30
2018-10-09T17:09:48.998Z,16.20
2018-10-09T17:12:17.492Z,16.00
2018-10-09T17:14:46.956Z,15.90
2018-10-09T17:17:15.733Z,15.80
2018-10-09T17:19:44.169Z,15.80
2018-10-09T17:22:12.850Z,15.70
2018-10-09T17:24:43.568Z,15.60
2018-10-09T17:27:12.364Z,15.50
2018-10-09T17:29:40.803Z,15.50
2018-10-09T17:32:09.606Z,15.40
2018-10-09T17:34:38.428Z,15.40
2018-10-09T17:37:06.987Z,15.30
2018-10-09T17:39:35.578Z,15.30
2018-10-09T17:42:04.087Z,15.20
2018-10-09T17:44:33.131Z,15.10
2018-10-09T17:47:05.473Z,15.00
2018-10-09T17:49:34.186Z,14.90
2018-10-09T17:52:03.225Z,14.90
2018-10-09T17:54:32.058Z,14.80
2018-10-09T17:57:01.240Z,14.70
2018-10-09T17:59:30.150Z,14.70
2018-10-09T18:01:59.386Z,14.70
2018-10-09T18:04:28.314Z,14.60
2018-10-09T18:06:57.091Z,14.60
2018-10-09T18:09:25.818Z,14.60
2018-10-09T18:11:54.477Z,14.60
2018-10-09T18:14:23.273Z,14.70
2018-10-09T18:16:52.383Z,14.70
2018-10-09T18:19:21.444Z,14.60
2018-10-09T18:21:50.196Z,14.60
2018-10-09T18:24:19.224Z,14.60
2018-10-09T18:26:48.267Z,14.60
2018-10-09T18:29:17.199Z,14.50
2018-10-09T18:31:45.967Z,14.40
2018-10-09T18:34:15.047Z,14.40
2018-10-09T18:36:43.735Z,14.30
2018-10-09T18:39:14.289Z,14.30
2018-10-09T18:41:43.530Z,14.20
2018-10-09T18:44:12.487Z,14.10
2018-10-09T18:46:41.551Z,14.00
2018-10-09T18:49:10.341Z,14.00
2018-10-09T18:51:39.144Z,13.90
2018-10-09T18:54:08.241Z,13.80
2018-10-09T18:56:37.018Z,13.70
2018-10-09T18:59:05.776Z,13.70
2018-10-09T19:01:35.076Z,13.70
2018-10-09T19:04:04.057Z,13.70
2018-10-09T19:06:33.109Z,13.60
2018-10-09T19:09:02.111Z,13.50
2018-10-09T19:11:30.938Z,13.40
2018-10-09T19:13:59.877Z,13.50
2018-10-09T19:16:28.267Z,13.50
2018-10-09T19:18:57.328Z,13.50
2018-10-09T19:21:26.100Z,13.50
2018-10-09T19:23:55.243Z,13.50
2018-10-09T19:26:24.095Z,13.50
2018-10-09T19:28:53.183Z,13.40
2018-10-09T19:31:21.599Z,13.40
2018-10-09T19:33:50.703Z,13.40
2018-10-09T19:36:19.811Z,13.40
2018-10-09T19:38:48.873Z,13.40
2018-10-09T19:41:17.577Z,13.40
2018-10-09T19:43:46.646Z,13.30
2018-10-09T19:46:15.880Z,13.30
2018-10-09T19:48:44.605Z,13.30
2018-10-09T19:51:13.815Z,13.20
2018-10-09T19:53:43.042Z,13.20
2018-10-09T19:56:12.095Z,13.20
2018-10-09T19:58:41.163Z,13.20
2018-10-09T20:01:10.088Z,13.10
2018-10-09T20:03:39.231Z,13.10
2018-10-09T20:06:08.005Z,13.10
2018-10-09T20:08:36.998Z,13.10
2018-10-09T20:11:05.746Z,13.00
2018-10-09T20:13:34.947Z,13.00
2018-10-09T20:16:03.818Z,13.00
2018-10-09T20:18:33.036Z,13.00
2018-10-09T20:21:02.082Z,13.10
2018-10-09T20:23:30.807Z,13.10
2018-10-09T20:25:59.513Z,13.10
2018-10-09T20:28:28.365Z,13.10
2018-10-09T20:30:57.440Z,13.10
2018-10-09T20:33:26.537Z,13.10
2018-10-09T20:35:55.395Z,13.10
2018-10-09T20:38:24.161Z,13.10
2018-10-09T20:40:52.855Z,13.10
2018-10-09T20:43:21.915Z,13.10
2018-10-09T20:45:51.341Z,13.00
2018-10-09T20:48:20.403Z,13.00
2018-10-09T20:50:49.491Z,13.00
2018-10-09T20:53:18.576Z,13.00
2018-10-09T20:55:47.488Z,12.90
2018-10-09T20:58:16.731Z,12.80
2018-10-09T21:00:45.413Z,12.70
2018-10-09T21:03:14.110Z,12.70
2018-10-09T21:05:43.276Z,12.60
2018-10-09T21:08:12.074Z,12.60
2018-10-09T21:10:41.174Z,12.60
2018-10-09T21:13:10.736Z,12.50
2018-10-09T21:15:39.790Z,12.50
2018-10-09T21:18:08.821Z,12.50
2018-10-09T21:20:37.955Z,12.50
2018-10-09T21:23:06.717Z,12.50
2018-10-09T21:25:35.949Z,12.40
2018-10-09T21:28:05.051Z,12.40
2018-10-09T21:30:34.306Z,12.40
2018-10-09T21:33:03.037Z,12.40
2018-10-09T21:35:31.405Z,12.40
2018-10-09T21:38:00.511Z,12.40
2018-10-09T21:40:29.203Z,12.40
2018-10-09T21:42:58.032Z,12.30
2018-10-09T21:45:27.137Z,12.20
2018-10-09T21:47:58.063Z,12.20
2018-10-09T21:50:27.068Z,12.20
2018-10-09T21:52:55.418Z,12.20
2018-10-09T21:55:24.443Z,12.20
2018-10-09T21:57:53.643Z,12.20
2018-10-09T22:00:22.935Z,12.20
2018-10-09T22:02:51.991Z,12.10
2018-10-09T22:05:20.718Z,12.10
2018-10-09T22:07:50.426Z,12.10
2018-10-09T22:10:19.450Z,12.00
2018-10-09T22:12:48.510Z,12.00
2018-10-09T22:15:17.739Z,11.90
2018-10-09T22:17:46.461Z,11.90
2018-10-09T22:20:15.496Z,11.90
2018-10-09T22:22:44.661Z,11.90
2018-10-09T22:25:13.341Z,11.80
2018-10-09T22:27:42.415Z,11.80
2018-10-09T22:30:11.229Z,11.90
2018-10-09T22:32:40.601Z,11.90
2018-10-09T22:35:09.319Z,11.90
2018-10-09T22:37:38.510Z,11.90
2018-10-09T22:40:07.002Z,11.80
2018-10-09T22:42:35.451Z,11.80
2018-10-09T22:45:04.160Z,11.80
2018-10-09T22:47:32.947Z,11.80
2018-10-09T22:50:01.812Z,11.70
2018-10-09T22:52:30.881Z,11.70
2018-10-09T22:54:59.590Z,11.60
2018-10-09T22:57:28.309Z,11.60
2018-10-09T22:59:57.093Z,11.50
2018-10-09T23:02:26.118Z,11.60
2018-10-09T23:04:55.173Z,11.60
2018-10-09T23:07:23.890Z,11.60
2018-10-09T23:09:52.906Z,11.60
2018-10-09T23:12:21.678Z,11.60
2018-10-09T23:14:50.733Z,11.60
2018-10-09T23:17:19.479Z,11.60
2018-10-09T23:19:48.547Z,11.50
2018-10-09T23:22:17.287Z,11.50
2018-10-09T23:24:46.330Z,11.50
2018-10-09T23:27:15.225Z,11.50
2018-10-09T23:29:44.331Z,11.50
2018-10-09T23:32:13.250Z,11.50
2018-10-09T23:34:41.965Z,11.50
2018-10-09T23:37:10.734Z,11.50
2018-10-09T23:39:39.787Z,11.50
2018-10-09T23:42:08.505Z,11.40
2018-10-09T23:44:37.869Z,11.40
2018-10-09T23:47:06.713Z,11.30
2018-10-09T23:49:35.477Z,11.30
2018-10-09T23:52:04.347Z,11.30
2018-10-09T23:54:33.194Z,11.30
2018-10-09T23:57:01.862Z,11.30
2018-10-09T23:59:30.437Z,11.30
